Time;durP1;ratioP1;P1;durP2;ratioP2;P2;SDS_P1;SDS_P2;PMS_P1;PMS_P2;Temp;Humidity;BMP_temperature;BMP_pressure;BME280_temperature;BME280_humidity;BME280_pressure;Samples;Min_cycle;Max_cycle;Signal;HPM_P1;HPM_P2
2024/03/20 00:00:27;;;;;;;8.45;3.42;;;;;;;;;;5063316;28;20055;-64
2024/03/20 00:02:54;;;;;;;6.13;3.35;;;;;;;;;;5062313;28;20044;-64
2024/03/20 00:05:20;;;;;;;5.05;3.00;;;;;;;;;;5060316;28;20033;-64
2024/03/20 00:07:46;;;;;;;4.90;3.35;;;;;;;;;;5068781;28;20030;-64
2024/03/20 00:10:12;;;;;;;5.13;3.38;;;;;;;;;;5063623;28;20044;-64
2024/03/20 00:12:39;;;;;;;4.93;3.10;;;;;;;;;;5066996;28;20036;-65
2024/03/20 00:15:06;;;;;;;5.13;3.40;;;;;;;;;;5069576;28;20433;-65
2024/03/20 00:17:33;;;;;;;4.60;2.80;;;;;;;;;;5078137;28;20048;-64
2024/03/20 00:20:00;;;;;;;5.38;3.65;;;;;;;;;;5062346;28;20036;-64
2024/03/20 00:22:30;;;;;;;5.68;3.15;;;;;;;;;;5066524;28;20052;-64
2024/03/20 00:24:57;;;;;;;6.40;3.13;;;;;;;;;;5072196;28;20040;-64
2024/03/20 00:27:23;;;;;;;6.65;3.40;;;;;;;;;;5069715;28;20040;-65
2024/03/20 00:29:49;;;;;;;5.85;3.72;;;;;;;;;;5080917;28;20033;-63
2024/03/20 00:32:15;;;;;;;4.97;3.42;;;;;;;;;;5068180;28;20044;-62
2024/03/20 00:34:41;;;;;;;5.45;3.42;;;;;;;;;;5088168;28;20425;-63
2024/03/20 00:37:07;;;;;;;5.07;3.53;;;;;;;;;;5064238;28;20051;-63
2024/03/20 00:39:33;;;;;;;6.03;3.25;;;;;;;;;;5063846;28;20048;-63
2024/03/20 00:41:59;;;;;;;5.75;3.70;;;;;;;;;;5059116;28;20402;-64
2024/03/20 00:44:25;;;;;;;5.38;3.05;;;;;;;;;;5062411;28;20051;-63
2024/03/20 00:46:51;;;;;;;6.18;3.67;;;;;;;;;;5069336;28;20036;-63
2024/03/20 00:49:17;;;;;;;4.53;3.22;;;;;;;;;;5066085;28;20039;-64
2024/03/20 00:51:44;;;;;;;5.82;3.45;;;;;;;;;;5058730;28;20043;-64
2024/03/20 00:54:10;;;;;;;5.68;3.20;;;;;;;;;;5063016;28;20053;-64
2024/03/20 00:56:36;;;;;;;4.63;3.25;;;;;;;;;;5059452;28;20498;-63
2024/03/20 00:59:04;;;;;;;5.22;3.08;;;;;;;;;;5057072;28;20040;-63
2024/03/20 01:01:30;;;;;;;6.78;3.00;;;;;;;;;;5065936;28;20048;-64
2024/03/20 01:03:56;;;;;;;5.57;3.38;;;;;;;;;;5061049;28;20045;-63
2024/03/20 01:06:23;;;;;;;5.63;3.05;;;;;;;;;;5059211;28;20037;-64
2024/03/20 01:08:49;;;;;;;5.75;3.42;;;;;;;;;;5068115;28;20051;-64
2024/03/20 01:11:15;;;;;;;4.63;3.20;;;;;;;;;;5064220;28;20036;-63
2024/03/20 01:13:41;;;;;;;4.10;2.70;;;;;;;;;;5067506;28;20031;-64
2024/03/20 01:16:07;;;;;;;3.78;2.70;;;;;;;;;;5068121;28;20481;-63
2024/03/20 01:18:33;;;;;;;4.65;3.03;;;;;;;;;;5070456;28;20048;-64
2024/03/20 01:20:59;;;;;;;5.18;3.35;;;;;;;;;;5072329;28;20047;-63
2024/03/20 01:23:25;;;;;;;4.22;3.17;;;;;;;;;;5068384;28;20063;-63
2024/03/20 01:25:52;;;;;;;5.15;3.10;;;;;;;;;;5067043;28;20052;-63
2024/03/20 01:28:18;;;;;;;4.90;3.15;;;;;;;;;;5068642;28;20104;-63
2024/03/20 01:30:44;;;;;;;3.85;2.58;;;;;;;;;;5067725;28;20052;-63
2024/03/20 01:33:10;;;;;;;7.43;3.78;;;;;;;;;;5072064;28;20510;-63
2024/03/20 01:35:36;;;;;;;4.32;3.15;;;;;;;;;;5059339;28;20398;-63
2024/03/20 01:38:02;;;;;;;5.57;3.35;;;;;;;;;;5052514;28;20063;-63
2024/03/20 01:40:28;;;;;;;4.72;2.90;;;;;;;;;;5062116;28;20056;-63
2024/03/20 01:42:55;;;;;;;7.07;3.50;;;;;;;;;;5058309;28;20052;-63
2024/03/20 01:45:21;;;;;;;5.93;3.55;;;;;;;;;;5068056;28;20044;-63
2024/03/20 01:47:47;;;;;;;7.43;3.67;;;;;;;;;;5062036;28;20044;-64
2024/03/20 01:50:14;;;;;;;4.57;3.10;;;;;;;;;;5060751;28;20425;-63
2024/03/20 01:52:53;;;;;;;8.48;3.20;;;;;;;;;;5065989;28;20514;-63
2024/03/20 01:55:21;;;;;;;5.10;2.80;;;;;;;;;;5065307;28;20067;-63
2024/03/20 01:57:52;;;;;;;5.55;2.92;;;;;;;;;;5063898;28;20040;-63
2024/03/20 02:00:23;;;;;;;5.47;3.50;;;;;;;;;;5066984;28;20032;-64
2024/03/20 02:02:53;;;;;;;5.20;2.95;;;;;;;;;;5069442;28;20032;-64
2024/03/20 02:05:20;;;;;;;5.72;3.58;;;;;;;;;;5069640;28;20052;-64
2024/03/20 02:07:46;;;;;;;7.60;3.20;;;;;;;;;;5065842;28;20485;-64
2024/03/20 02:10:12;;;;;;;5.82;3.20;;;;;;;;;;5096649;28;20052;-64
2024/03/20 02:12:38;;;;;;;9.57;3.55;;;;;;;;;;5067722;28;20048;-64
2024/03/20 02:15:08;;;;;;;4.95;2.80;;;;;;;;;;5068612;28;20071;-64
2024/03/20 02:17:36;;;;;;;4.93;2.78;;;;;;;;;;5068397;28;20032;-63
2024/03/20 02:20:06;;;;;;;5.85;2.80;;;;;;;;;;5068529;28;20033;-64
2024/03/20 02:22:43;;;;;;;4.03;2.80;;;;;;;;;;5067284;28;20346;-63
2024/03/20 02:25:11;;;;;;;4.25;3.00;;;;;;;;;;5059930;28;20032;-63
2024/03/20 02:27:38;;;;;;;5.13;3.17;;;;;;;;;;5084587;28;20489;-64
2024/03/20 02:30:10;;;;;;;5.90;3.50;;;;;;;;;;5059061;28;20048;-64
2024/03/20 02:32:37;;;;;;;5.55;3.55;;;;;;;;;;5061729;28;20052;-62
2024/03/20 02:35:03;;;;;;;5.50;3.35;;;;;;;;;;5065231;28;20040;-65
2024/03/20 02:37:29;;;;;;;5.18;3.30;;;;;;;;;;5060289;28;20052;-63
2024/03/20 02:39:55;;;;;;;8.30;4.00;;;;;;;;;;5067860;28;20037;-63
2024/03/20 02:42:22;;;;;;;4.82;3.10;;;;;;;;;;5064846;28;20063;-63
2024/03/20 02:44:49;;;;;;;4.28;3.17;;;;;;;;;;5056346;28;20054;-63
2024/03/20 02:47:16;;;;;;;5.90;3.28;;;;;;;;;;5065981;28;20637;-63
2024/03/20 02:49:42;;;;;;;5.43;3.13;;;;;;;;;;5063351;28;20041;-64
2024/03/20 02:52:09;;;;;;;5.80;3.40;;;;;;;;;;5065730;28;20047;-63
2024/03/20 02:54:35;;;;;;;6.57;3.17;;;;;;;;;;5064411;28;20068;-63
2024/03/20 02:57:01;;;;;;;4.22;2.97;;;;;;;;;;5060094;28;20053;-64
2024/03/20 02:59:27;;;;;;;7.38;3.53;;;;;;;;;;5066444;28;20028;-63
2024/03/20 03:01:54;;;;;;;6.95;3.70;;;;;;;;;;5066261;28;20036;-64
2024/03/20 03:04:20;;;;;;;5.10;3.00;;;;;;;;;;5069770;28;20036;-64
2024/03/20 03:06:46;;;;;;;4.80;3.00;;;;;;;;;;5063180;28;20056;-63
2024/03/20 03:09:16;;;;;;;5.05;3.40;;;;;;;;;;5063731;28;20555;-64
2024/03/20 03:11:44;;;;;;;4.45;2.70;;;;;;;;;;5069647;28;20036;-64
2024/03/20 03:14:14;;;;;;;5.43;2.47;;;;;;;;;;5069387;28;20032;-64
2024/03/20 03:16:40;;;;;;;5.95;2.85;;;;;;;;;;5064142;28;20051;-65
2024/03/20 03:19:08;;;;;;;4.22;2.97;;;;;;;;;;5063892;28;20044;-64
2024/03/20 03:21:35;;;;;;;4.07;2.80;;;;;;;;;;5069661;28;20044;-64
2024/03/20 03:24:04;;;;;;;4.90;2.72;;;;;;;;;;5067684;28;20048;-66
2024/03/20 03:26:34;;;;;;;4.03;2.83;;;;;;;;;;5071955;28;20058;-64
2024/03/20 03:29:00;;;;;;;4.68;2.50;;;;;;;;;;5070966;28;20599;-63
2024/03/20 03:31:27;;;;;;;6.72;2.67;;;;;;;;;;5076062;28;20056;-64
2024/03/20 03:33:53;;;;;;;7.20;2.75;;;;;;;;;;5071295;28;20048;-64
2024/03/20 03:36:19;;;;;;;7.82;3.03;;;;;;;;;;5062433;28;20051;-64
2024/03/20 03:38:46;;;;;;;4.97;2.75;;;;;;;;;;5069155;28;20390;-64
2024/03/20 03:41:12;;;;;;;6.40;2.92;;;;;;;;;;5063538;28;20494;-64
2024/03/20 03:43:38;;;;;;;4.22;3.00;;;;;;;;;;5064221;28;20053;-64
2024/03/20 03:46:05;;;;;;;4.15;2.88;;;;;;;;;;5061963;28;20403;-63
2024/03/20 03:48:31;;;;;;;4.05;3.08;;;;;;;;;;5062988;28;20055;-64
2024/03/20 03:50:57;;;;;;;4.65;2.92;;;;;;;;;;5065140;28;20044;-64
2024/03/20 03:53:23;;;;;;;3.17;2.65;;;;;;;;;;5065008;28;20524;-64
2024/03/20 03:55:49;;;;;;;7.93;2.83;;;;;;;;;;5065217;28;20401;-64
2024/03/20 03:58:15;;;;;;;7.15;2.70;;;;;;;;;;5066077;28;20408;-64
2024/03/20 04:00:42;;;;;;;4.45;2.70;;;;;;;;;;5079674;22;20059;-61
2024/03/20 04:03:08;;;;;;;4.70;2.85;;;;;;;;;;5079859;28;20033;-60
2024/03/20 04:05:34;;;;;;;7.75;3.00;;;;;;;;;;5083561;28;20040;-63
2024/03/20 04:08:01;;;;;;;3.92;2.60;;;;;;;;;;5077874;28;20052;-61
2024/03/20 04:10:27;;;;;;;4.10;2.58;;;;;;;;;;5076575;28;20035;-60
2024/03/20 04:12:53;;;;;;;4.70;2.75;;;;;;;;;;5078339;28;20386;-62
2024/03/20 04:15:19;;;;;;;7.40;2.67;;;;;;;;;;5078550;28;20031;-62
2024/03/20 04:17:45;;;;;;;4.57;2.78;;;;;;;;;;5080606;28;20055;-61
2024/03/20 04:20:11;;;;;;;4.05;2.75;;;;;;;;;;5084012;28;20039;-61
2024/03/20 04:22:38;;;;;;;3.80;2.80;;;;;;;;;;5081288;28;20051;-61
2024/03/20 04:25:05;;;;;;;5.72;2.90;;;;;;;;;;5076592;28;20037;-61
2024/03/20 04:27:32;;;;;;;4.85;2.95;;;;;;;;;;5086778;28;20040;-61
2024/03/20 04:29:58;;;;;;;3.95;2.60;;;;;;;;;;5081718;28;20035;-61
2024/03/20 04:32:25;;;;;;;3.97;2.50;;;;;;;;;;5085541;28;20406;-61
2024/03/20 04:34:51;;;;;;;3.97;2.63;;;;;;;;;;5080767;28;20040;-62
2024/03/20 04:37:17;;;;;;;5.82;3.10;;;;;;;;;;5076519;28;20044;-61
2024/03/20 04:39:43;;;;;;;5.38;3.67;;;;;;;;;;5081188;28;20043;-62
2024/03/20 04:42:12;;;;;;;7.57;3.30;;;;;;;;;;5072725;28;20449;-61
2024/03/20 04:44:39;;;;;;;13.98;3.97;;;;;;;;;;5077440;28;20500;-61
2024/03/20 04:47:06;;;;;;;8.75;5.07;;;;;;;;;;5078133;28;20070;-61
2024/03/20 04:49:33;;;;;;;8.60;4.82;;;;;;;;;;5076893;28;20052;-61
2024/03/20 04:51:59;;;;;;;8.05;4.90;;;;;;;;;;5080794;28;20044;-61
2024/03/20 04:54:25;;;;;;;8.75;4.93;;;;;;;;;;5077874;28;20035;-61
2024/03/20 04:56:52;;;;;;;10.73;5.32;;;;;;;;;;5078356;28;20524;-62
2024/03/20 04:59:18;;;;;;;6.68;4.50;;;;;;;;;;5086410;28;20477;-62
2024/03/20 05:01:44;;;;;;;8.07;3.90;;;;;;;;;;5085485;28;20047;-62
2024/03/20 05:04:11;;;;;;;11.98;5.57;;;;;;;;;;5089379;28;20504;-62
2024/03/20 05:06:37;;;;;;;7.40;4.57;;;;;;;;;;5081343;28;20044;-62
2024/03/20 05:09:04;;;;;;;6.60;4.30;;;;;;;;;;5080501;28;20497;-61
2024/03/20 05:11:31;;;;;;;7.65;4.85;;;;;;;;;;5081084;28;20043;-61
2024/03/20 05:13:57;;;;;;;6.78;4.35;;;;;;;;;;5081841;28;20044;-62
2024/03/20 05:16:23;;;;;;;6.60;4.38;;;;;;;;;;5084327;28;20064;-61
2024/03/20 05:18:49;;;;;;;5.82;3.55;;;;;;;;;;5082301;28;20039;-62
2024/03/20 05:21:16;;;;;;;5.57;3.35;;;;;;;;;;5078885;28;20040;-61
2024/03/20 05:23:42;;;;;;;4.07;2.88;;;;;;;;;;5080414;28;20032;-61
2024/03/20 05:26:08;;;;;;;6.65;3.28;;;;;;;;;;5072965;28;20700;-61
2024/03/20 05:28:34;;;;;;;10.02;5.20;;;;;;;;;;5073832;28;20075;-61
2024/03/20 05:31:00;;;;;;;5.65;3.78;;;;;;;;;;5077315;28;20425;-63
2024/03/20 05:33:26;;;;;;;7.20;4.03;;;;;;;;;;5077556;28;20564;-62
2024/03/20 05:35:52;;;;;;;5.47;3.20;;;;;;;;;;5077548;28;20044;-62
2024/03/20 05:38:18;;;;;;;6.13;3.58;;;;;;;;;;5077009;28;20493;-61
2024/03/20 05:40:44;;;;;;;9.98;4.10;;;;;;;;;;5082651;28;20055;-62
2024/03/20 05:43:10;;;;;;;5.97;3.90;;;;;;;;;;5077016;28;20405;-62
2024/03/20 05:45:37;;;;;;;8.40;4.80;;;;;;;;;;5081991;28;20049;-62
2024/03/20 05:48:04;;;;;;;8.15;4.35;;;;;;;;;;5086259;28;20504;-62
2024/03/20 05:50:30;;;;;;;52.47;16.05;;;;;;;;;;5080461;28;20036;-64
2024/03/20 05:52:57;;;;;;;9.85;4.75;;;;;;;;;;5077242;28;20047;-63
2024/03/20 05:55:23;;;;;;;5.32;4.22;;;;;;;;;;5077710;28;20035;-63
2024/03/20 05:57:50;;;;;;;6.00;3.92;;;;;;;;;;5078207;28;20047;-64
2024/03/20 06:00:18;;;;;;;8.57;4.60;;;;;;;;;;5081176;28;20032;-63
2024/03/20 06:02:44;;;;;;;8.27;4.32;;;;;;;;;;5078413;28;20033;-62
2024/03/20 06:05:12;;;;;;;7.68;4.35;;;;;;;;;;5079977;28;20029;-63
2024/03/20 06:07:38;;;;;;;9.32;4.50;;;;;;;;;;5080361;28;20055;-63
2024/03/20 06:10:08;;;;;;;8.25;5.15;;;;;;;;;;5078895;28;20055;-63
2024/03/20 06:12:34;;;;;;;;;;;;;;;;;;5079332;28;20032;-63
2024/03/20 06:15:01;;;;;;;9.40;5.93;;;;;;;;;;5081715;28;19912;-63
2024/03/20 06:17:27;;;;;;;12.75;6.88;;;;;;;;;;5083768;28;20043;-63
2024/03/20 06:19:56;;;;;;;18.50;8.55;;;;;;;;;;5087455;28;20032;-63
2024/03/20 06:22:25;;;;;;;15.32;8.27;;;;;;;;;;5082235;28;20024;-62
2024/03/20 06:24:51;;;;;;;12.43;7.38;;;;;;;;;;5076787;28;20043;-63
2024/03/20 06:27:17;;;;;;;12.88;6.68;;;;;;;;;;5083172;28;20460;-63
2024/03/20 06:29:45;;;;;;;7.93;5.28;;;;;;;;;;5085445;28;20063;-63
2024/03/20 06:32:11;;;;;;;10.43;6.13;;;;;;;;;;5081243;28;20041;-64
2024/03/20 06:34:37;;;;;;;9.07;6.38;;;;;;;;;;5082559;28;20058;-64
2024/03/20 06:37:04;;;;;;;19.35;9.13;;;;;;;;;;5091078;28;20047;-63
2024/03/20 06:39:30;;;;;;;22.70;12.13;;;;;;;;;;5076808;28;20048;-63
2024/03/20 06:41:56;;;;;;;18.02;10.25;;;;;;;;;;5080843;28;20374;-64
2024/03/20 06:44:23;;;;;;;17.67;7.95;;;;;;;;;;5079506;28;20047;-63
2024/03/20 06:46:49;;;;;;;15.55;7.78;;;;;;;;;;5082227;28;20036;-63
2024/03/20 06:49:15;;;;;;;15.25;8.23;;;;;;;;;;5094445;27;20045;-64
2024/03/20 06:51:43;;;;;;;14.13;8.18;;;;;;;;;;5077316;28;20059;-63
2024/03/20 06:54:16;;;;;;;15.10;8.68;;;;;;;;;;5079379;28;20052;-63
2024/03/20 06:56:47;;;;;;;15.40;8.38;;;;;;;;;;5084266;28;20055;-63
2024/03/20 06:59:13;;;;;;;17.25;10.32;;;;;;;;;;5081630;28;20036;-63
2024/03/20 07:01:39;;;;;;;15.23;9.52;;;;;;;;;;5084601;28;20527;-62
2024/03/20 07:04:05;;;;;;;30.17;15.35;;;;;;;;;;5074058;28;20405;-63
2024/03/20 07:06:32;;;;;;;29.73;14.65;;;;;;;;;;5084719;28;20055;-63
2024/03/20 07:08:58;;;;;;;40.00;17.67;;;;;;;;;;5078311;28;20044;-62
2024/03/20 07:11:24;;;;;;;35.92;15.93;;;;;;;;;;5075648;28;20060;-63
2024/03/20 07:13:54;;;;;;;27.67;13.73;;;;;;;;;;5087760;28;20052;-63
2024/03/20 07:16:20;;;;;;;;;;;;;;;;;;5088769;28;20043;-63
2024/03/20 07:18:46;;;;;;;24.90;12.82;;;;;;;;;;5086936;28;19912;-63
2024/03/20 07:21:12;;;;;;;23.23;13.00;;;;;;;;;;5084773;28;20085;-63
2024/03/20 07:23:38;;;;;;;16.60;10.73;;;;;;;;;;5074297;28;20052;-63
2024/03/20 07:26:06;;;;;;;16.30;9.77;;;;;;;;;;5076632;28;20051;-65
2024/03/20 07:28:33;;;;;;;18.00;9.93;;;;;;;;;;5087670;28;20501;-63
2024/03/20 07:30:59;;;;;;;19.55;10.48;;;;;;;;;;5086354;28;20048;-63
2024/03/20 07:33:25;;;;;;;18.17;10.10;;;;;;;;;;5082353;28;20159;-63
2024/03/20 07:35:51;;;;;;;18.58;9.43;;;;;;;;;;5078907;28;20374;-63
2024/03/20 07:38:17;;;;;;;17.73;10.13;;;;;;;;;;5079317;28;20405;-64
2024/03/20 07:40:43;;;;;;;14.65;8.85;;;;;;;;;;5074297;28;20055;-64
2024/03/20 07:43:10;;;;;;;13.68;8.82;;;;;;;;;;5073579;28;20057;-63
2024/03/20 07:45:36;;;;;;;14.20;9.02;;;;;;;;;;5074375;28;20048;-63
2024/03/20 07:48:03;;;;;;;12.80;8.70;;;;;;;;;;5074441;28;20063;-66
2024/03/20 07:50:29;;;;;;;12.65;8.57;;;;;;;;;;5077115;28;20515;-63
2024/03/20 07:52:55;;;;;;;16.23;9.20;;;;;;;;;;5074882;28;20485;-63
2024/03/20 07:55:21;;;;;;;17.35;10.35;;;;;;;;;;5074792;28;20048;-63
2024/03/20 07:57:48;;;;;;;16.15;9.18;;;;;;;;;;5074003;28;20043;-64
2024/03/20 08:00:27;;;;;;;15.18;9.20;;;;;;;;;;5077584;28;20032;-63
2024/03/20 08:02:58;;;;;;;12.93;8.70;;;;;;;;;;5080926;28;20067;-64
2024/03/20 08:05:27;;;;;;;13.10;8.20;;;;;;;;;;5075735;28;20040;-64
2024/03/20 08:07:54;;;;;;;14.52;9.68;;;;;;;;;;5077103;28;20040;-64
2024/03/20 08:10:20;;;;;;;14.85;8.98;;;;;;;;;;5080521;28;20043;-64
2024/03/20 08:12:46;;;;;;;15.18;9.45;;;;;;;;;;5078283;28;20444;-64
2024/03/20 08:15:12;;;;;;;17.10;9.48;;;;;;;;;;5085476;28;20048;-64
2024/03/20 08:17:38;;;;;;;17.20;8.82;;;;;;;;;;5086307;28;20059;-64
2024/03/20 08:20:12;;;;;;;13.73;8.30;;;;;;;;;;5087497;28;20024;-64
2024/03/20 08:22:42;;;;;;;12.07;7.97;;;;;;;;;;5075353;28;20060;-64
2024/03/20 08:25:10;;;;;;;11.70;7.93;;;;;;;;;;5071923;28;20517;-64
2024/03/20 08:27:36;;;;;;;12.73;7.80;;;;;;;;;;5084110;28;20054;-64
2024/03/20 08:30:05;;;;;;;11.93;7.55;;;;;;;;;;5087595;28;20047;-64
2024/03/20 08:32:31;;;;;;;11.13;6.75;;;;;;;;;;5078827;28;20057;-64
2024/03/20 08:34:58;;;;;;;15.02;7.47;;;;;;;;;;5074457;28;20055;-64
2024/03/20 08:37:24;;;;;;;13.15;7.30;;;;;;;;;;5086110;28;20062;-64
2024/03/20 08:39:52;;;;;;;13.27;8.18;;;;;;;;;;5081368;28;20128;-65
2024/03/20 08:42:18;;;;;;;12.35;7.57;;;;;;;;;;5072973;28;20047;-64
2024/03/20 08:44:44;;;;;;;11.57;7.00;;;;;;;;;;5077634;28;20036;-64
2024/03/20 08:47:11;;;;;;;9.88;6.55;;;;;;;;;;5073305;28;20132;-64
2024/03/20 08:49:37;;;;;;;14.65;7.20;;;;;;;;;;5081690;28;20040;-64
2024/03/20 08:52:09;;;;;;;10.10;6.78;;;;;;;;;;5071938;28;20063;-64
2024/03/20 08:54:35;;;;;;;10.25;6.18;;;;;;;;;;5076858;28;20497;-64
2024/03/20 08:57:03;;;;;;;9.52;6.43;;;;;;;;;;5073285;28;20056;-64
2024/03/20 08:59:33;;;;;;;10.73;7.53;;;;;;;;;;5076838;28;20047;-64
2024/03/20 09:01:59;;;;;;;12.13;6.63;;;;;;;;;;5074969;28;20040;-64
2024/03/20 09:04:25;;;;;;;11.43;7.20;;;;;;;;;;5078394;28;20051;-64
2024/03/20 09:06:51;;;;;;;11.40;7.30;;;;;;;;;;5083573;28;20044;-64
2024/03/20 09:09:17;;;;;;;9.82;6.78;;;;;;;;;;5084489;28;20047;-64
2024/03/20 09:11:45;;;;;;;10.68;6.60;;;;;;;;;;5086548;28;20048;-64
2024/03/20 09:14:14;;;;;;;8.95;6.60;;;;;;;;;;5092220;28;20050;-64
2024/03/20 09:16:40;;;;;;;14.30;7.18;;;;;;;;;;5087576;28;20040;-64
2024/03/20 09:19:06;;;;;;;10.73;6.38;;;;;;;;;;5089701;28;20036;-64
2024/03/20 09:21:34;;;;;;;8.43;5.72;;;;;;;;;;5079118;28;20048;-64
2024/03/20 09:24:03;;;;;;;7.53;5.03;;;;;;;;;;5079478;28;20050;-64
2024/03/20 09:26:29;;;;;;;11.70;6.07;;;;;;;;;;5089090;28;20036;-64
2024/03/20 09:28:55;;;;;;;9.93;5.65;;;;;;;;;;5086992;28;20044;-67
2024/03/20 09:31:21;;;;;;;8.70;5.65;;;;;;;;;;5083856;28;20099;-64
2024/03/20 09:33:47;;;;;;;6.32;4.95;;;;;;;;;;5089606;28;20043;-64
2024/03/20 09:36:13;;;;;;;7.80;4.57;;;;;;;;;;5081909;28;20025;-64
2024/03/20 09:38:39;;;;;;;7.70;5.82;;;;;;;;;;5078918;28;20036;-63
2024/03/20 09:41:14;;;;;;;6.93;5.15;;;;;;;;;;5084451;28;20036;-64
2024/03/20 09:43:40;;;;;;;7.75;5.13;;;;;;;;;;5080926;28;20120;-64
2024/03/20 09:46:11;;;;;;;7.70;5.65;;;;;;;;;;5086264;28;20036;-64
2024/03/20 09:48:39;;;;;;;8.63;5.15;;;;;;;;;;5081447;28;20048;-63
2024/03/20 09:51:05;;;;;;;7.60;4.88;;;;;;;;;;5079693;28;20048;-62
2024/03/20 09:53:34;;;;;;;7.10;5.50;;;;;;;;;;5076778;28;20162;-63
2024/03/20 09:56:09;;;;;;;8.00;4.35;;;;;;;;;;5078942;28;20029;-63
2024/03/20 09:58:45;;;;;;;7.35;4.80;;;;;;;;;;5085180;28;20439;-63
2024/03/20 10:01:22;;;;;;;7.95;4.75;;;;;;;;;;5077428;28;20036;-63
2024/03/20 10:03:55;;;;;;;5.25;4.55;;;;;;;;;;5077890;28;20420;-63
2024/03/20 10:06:25;;;;;;;6.90;4.38;;;;;;;;;;5086434;28;20055;-63
2024/03/20 10:08:52;;;;;;;7.53;4.35;;;;;;;;;;5077529;28;20048;-65
2024/03/20 10:11:18;;;;;;;7.80;4.03;;;;;;;;;;5077877;28;20412;-63
2024/03/20 10:13:45;;;;;;;5.95;4.20;;;;;;;;;;5088271;28;20040;-63
2024/03/20 10:16:14;;;;;;;7.47;3.90;;;;;;;;;;5086057;28;20427;-63
2024/03/20 10:18:43;;;;;;;5.50;3.85;;;;;;;;;;5080137;28;20044;-62
2024/03/20 10:21:10;;;;;;;5.20;3.67;;;;;;;;;;5077276;28;20037;-63
2024/03/20 10:23:40;;;;;;;5.50;3.75;;;;;;;;;;5072476;22;20407;-63
2024/03/20 10:26:10;;;;;;;7.10;3.92;;;;;;;;;;5039486;28;20045;-62
2024/03/20 10:28:38;;;;;;;6.30;3.85;;;;;;;;;;5042066;28;20120;-62
2024/03/20 10:31:07;;;;;;;5.20;3.38;;;;;;;;;;5036988;28;20060;-62
2024/03/20 10:33:38;;;;;;;5.45;2.90;;;;;;;;;;5034574;28;20052;-62
2024/03/20 10:36:04;;;;;;;4.97;2.90;;;;;;;;;;5038923;28;20044;-62
2024/03/20 10:38:32;;;;;;;5.70;3.78;;;;;;;;;;5038319;28;20038;-61
2024/03/20 10:40:59;;;;;;;5.03;3.95;;;;;;;;;;5040672;28;20025;-62
2024/03/20 10:43:27;;;;;;;5.90;3.40;;;;;;;;;;5038124;28;20057;-62
2024/03/20 10:45:54;;;;;;;8.02;3.35;;;;;;;;;;5023158;28;20037;-62
2024/03/20 10:48:23;;;;;;;4.40;3.08;;;;;;;;;;5041454;28;20060;-62
2024/03/20 10:50:51;;;;;;;4.45;2.67;;;;;;;;;;5037618;28;20049;-62
2024/03/20 10:53:20;;;;;;;7.07;3.03;;;;;;;;;;5039420;28;20422;-61
2024/03/20 10:55:49;;;;;;;6.68;4.07;;;;;;;;;;5036898;28;20052;-62
2024/03/20 10:58:16;;;;;;;5.07;3.00;;;;;;;;;;5033243;28;20056;-62
2024/03/20 11:00:45;;;;;;;6.68;2.85;;;;;;;;;;5021001;28;20849;-62
2024/03/20 11:03:37;;;;;;;4.03;3.28;;;;;;;;;;5040724;28;20498;-62
2024/03/20 11:06:30;;;;;;;4.05;3.00;;;;;;;;;;5040658;28;20033;-63
2024/03/20 11:09:00;;;;;;;8.75;3.05;;;;;;;;;;5041172;28;20038;-63
2024/03/20 11:11:26;;;;;;;6.07;3.28;;;;;;;;;;5035969;28;20525;-62
2024/03/20 11:13:53;;;;;;;5.85;2.85;;;;;;;;;;5037775;28;20041;-62
2024/03/20 11:16:23;;;;;;;2.72;2.40;;;;;;;;;;5024765;28;20060;-62
2024/03/20 11:19:01;;;;;;;8.48;2.47;;;;;;;;;;5043322;28;20049;-62
2024/03/20 11:21:29;;;;;;;4.88;2.42;;;;;;;;;;5036074;28;20029;-63
2024/03/20 11:23:55;;;;;;;7.00;2.70;;;;;;;;;;5017586;28;20029;-63
2024/03/20 11:26:22;;;;;;;4.32;2.50;;;;;;;;;;5034634;28;20404;-63
2024/03/20 11:28:48;;;;;;;2.97;2.67;;;;;;;;;;5043283;28;20599;-62
2024/03/20 11:31:14;;;;;;;4.75;3.30;;;;;;;;;;5013993;28;20041;-63
2024/03/20 11:33:44;;;;;;;3.88;2.20;;;;;;;;;;5036032;28;20044;-62
2024/03/20 11:36:21;;;;;;;3.67;2.33;;;;;;;;;;5034562;28;20384;-63
2024/03/20 11:38:48;;;;;;;3.65;2.00;;;;;;;;;;5022921;28;20033;-62
2024/03/20 11:41:19;;;;;;;3.83;2.35;;;;;;;;;;5021604;28;20049;-62
2024/03/20 11:43:46;;;;;;;3.00;2.22;;;;;;;;;;5007362;28;20033;-62
2024/03/20 11:46:16;;;;;;;4.00;1.70;;;;;;;;;;5038328;28;20053;-61
2024/03/20 11:48:45;;;;;;;;;;;;;;;;;;5022244;28;20052;-61
2024/03/20 11:51:12;;;;;;;1.98;1.42;;;;;;;;;;5037931;28;19924;-61
2024/03/20 11:53:38;;;;;;;2.65;1.65;;;;;;;;;;5040761;28;20041;-62
2024/03/20 11:56:06;;;;;;;1.80;1.50;;;;;;;;;;5037738;28;20494;-62
2024/03/20 11:58:34;;;;;;;2.88;1.70;;;;;;;;;;5039356;28;20040;-62
2024/03/20 12:01:03;;;;;;;2.70;1.50;;;;;;;;;;5038039;28;20042;-62
2024/03/20 12:03:29;;;;;;;2.30;1.55;;;;;;;;;;5039690;28;20075;-62
2024/03/20 12:06:25;;;;;;;3.08;1.33;;;;;;;;;;5024531;28;20037;-62
2024/03/20 12:08:52;;;;;;;2.42;1.30;;;;;;;;;;5042093;28;20044;-62
2024/03/20 12:11:24;;;;;;;2.38;1.17;;;;;;;;;;5025046;28;20044;-62
2024/03/20 12:13:53;;;;;;;2.60;1.05;;;;;;;;;;5022126;28;20041;-62
2024/03/20 12:16:21;;;;;;;1.40;1.27;;;;;;;;;;5019807;28;20041;-62
2024/03/20 12:18:48;;;;;;;2.10;1.27;;;;;;;;;;5038271;28;20028;-61
2024/03/20 12:21:15;;;;;;;3.20;1.33;;;;;;;;;;5036931;28;20123;-62
2024/03/20 12:23:41;;;;;;;2.13;1.10;;;;;;;;;;5034780;28;20545;-62
2024/03/20 12:26:09;;;;;;;1.67;1.25;;;;;;;;;;5040379;28;20044;-62
2024/03/20 12:28:35;;;;;;;2.97;1.27;;;;;;;;;;5036941;28;20041;-62
2024/03/20 12:31:01;;;;;;;3.45;1.35;;;;;;;;;;5015288;28;20044;-63
2024/03/20 12:33:28;;;;;;;2.85;1.33;;;;;;;;;;5040669;28;20049;-62
2024/03/20 12:35:54;;;;;;;3.95;1.67;;;;;;;;;;5018693;28;20710;-62
2024/03/20 12:38:21;;;;;;;2.05;1.42;;;;;;;;;;5035258;28;20483;-62
2024/03/20 12:40:47;;;;;;;2.53;1.83;;;;;;;;;;5034943;28;20068;-62
2024/03/20 12:43:14;;;;;;;3.80;2.05;;;;;;;;;;5039332;28;20041;-62
2024/03/20 12:45:41;;;;;;;2.22;1.33;;;;;;;;;;5003521;28;20045;-62
2024/03/20 12:48:14;;;;;;;4.88;1.80;;;;;;;;;;5024052;28;20040;-63
2024/03/20 12:50:42;;;;;;;4.63;1.83;;;;;;;;;;5034083;28;20056;-62
2024/03/20 12:53:16;;;;;;;2.25;1.27;;;;;;;;;;5026014;28;20037;-61
2024/03/20 12:55:43;;;;;;;1.73;1.25;;;;;;;;;;5036654;28;20045;-61
2024/03/20 12:58:14;;;;;;;1.95;1.38;;;;;;;;;;5017676;28;20510;-62
2024/03/20 13:00:44;;;;;;;2.65;1.50;;;;;;;;;;5040147;28;20049;-62
2024/03/20 13:03:15;;;;;;;2.40;1.40;;;;;;;;;;5041297;28;20630;-63
2024/03/20 13:05:42;;;;;;;2.78;1.15;;;;;;;;;;5038443;28;20040;-63
2024/03/20 13:08:13;;;;;;;2.63;1.40;;;;;;;;;;5032116;28;20046;-63
2024/03/20 13:10:40;;;;;;;2.58;1.23;;;;;;;;;;5016669;28;20041;-63
2024/03/20 13:13:23;;;;;;;2.00;1.20;;;;;;;;;;5035426;28;20052;-63
2024/03/20 13:15:50;;;;;;;3.35;1.30;;;;;;;;;;5016821;28;20379;-62
2024/03/20 13:18:48;;;;;;;1.83;1.20;;;;;;;;;;5023827;28;20029;-62
2024/03/20 13:21:28;;;;;;;3.40;1.30;;;;;;;;;;5038828;28;20052;-62
2024/03/20 13:24:06;;;;;;;1.55;1.10;;;;;;;;;;5032703;28;20776;-62
2024/03/20 13:26:38;;;;;;;2.03;1.35;;;;;;;;;;5023181;28;20059;-63
2024/03/20 13:29:06;;;;;;;2.40;1.83;;;;;;;;;;5014755;28;20052;-62
2024/03/20 13:31:33;;;;;;;5.60;1.45;;;;;;;;;;5016201;28;20042;-63
2024/03/20 13:34:01;;;;;;;1.88;1.50;;;;;;;;;;5035680;28;20045;-63
2024/03/20 13:36:27;;;;;;;2.47;1.60;;;;;;;;;;5002358;28;20042;-63
2024/03/20 13:39:17;;;;;;;2.35;1.73;;;;;;;;;;5038056;28;20054;-62
2024/03/20 13:44:14;;;;;;;2.42;1.60;;;;;;;;;;5043908;28;20033;-62
2024/03/20 13:46:41;;;;;;;2.85;1.85;;;;;;;;;;5017755;28;20052;-62
2024/03/20 13:49:13;;;;;;;6.97;2.00;;;;;;;;;;5037147;28;20041;-62
2024/03/20 13:51:40;;;;;;;2.13;1.70;;;;;;;;;;5047989;28;20064;-63
2024/03/20 13:54:07;;;;;;;6.20;1.70;;;;;;;;;;5036522;28;20486;-62
2024/03/20 13:56:35;;;;;;;3.45;1.67;;;;;;;;;;5039962;28;20076;-62
2024/03/20 13:59:04;;;;;;;2.25;1.98;;;;;;;;;;5024016;28;20041;-62
2024/03/20 14:01:33;;;;;;;1.90;1.50;;;;;;;;;;5022088;28;20506;-62
2024/03/20 14:04:00;;;;;;;2.70;1.60;;;;;;;;;;5021644;28;20036;-62
2024/03/20 14:06:27;;;;;;;2.85;1.50;;;;;;;;;;5041045;28;20588;-62
2024/03/20 14:08:54;;;;;;;3.83;1.55;;;;;;;;;;5002546;28;20442;-62
2024/03/20 14:11:21;;;;;;;1.95;1.40;;;;;;;;;;5038842;28;20033;-63
2024/03/20 14:13:48;;;;;;;3.78;2.13;;;;;;;;;;5020621;28;20044;-62
2024/03/20 14:16:14;;;;;;;5.07;1.95;;;;;;;;;;5036515;28;20401;-62
2024/03/20 14:18:40;;;;;;;4.15;1.67;;;;;;;;;;5021567;28;20048;-62
2024/03/20 14:21:17;;;;;;;1.58;1.42;;;;;;;;;;5038855;28;20486;-62
2024/03/20 14:23:45;;;;;;;2.75;1.27;;;;;;;;;;5035610;28;20042;-63
2024/03/20 14:26:19;;;;;;;2.25;1.88;;;;;;;;;;5038764;28;20049;-63
2024/03/20 14:29:08;;;;;;;3.45;1.60;;;;;;;;;;5038701;28;20068;-63
2024/03/20 14:31:34;;;;;;;4.47;1.50;;;;;;;;;;5043164;28;20414;-62
2024/03/20 14:34:00;;;;;;;3.42;1.40;;;;;;;;;;5035133;28;20044;-63
2024/03/20 14:36:27;;;;;;;2.70;1.42;;;;;;;;;;5036543;28;20053;-63
2024/03/20 14:38:53;;;;;;;4.75;1.60;;;;;;;;;;5044833;28;20057;-63
2024/03/20 14:41:20;;;;;;;2.92;1.33;;;;;;;;;;5038010;28;20048;-63
2024/03/20 14:43:50;;;;;;;2.25;1.30;;;;;;;;;;5040114;28;20049;-62
2024/03/20 14:46:22;;;;;;;14.18;6.15;;;;;;;;;;5022187;28;20041;-62